Sarcobatus Flat, Nevada Weather observations

Data are for observation ending at time listed.
 Day   Time    Ave.   Ave.  Ave.  Vector   Max.   Stn.    Total    Solar   Ave.  
  of    of     Air    Rel.  Wind   Wind    Wind   Baro.  Precip.   Rad.    Soil  
Year   Day     Temp.  Hum.  Speed  Dir.    Gust   Pres.                    Temp. 
2017   (PST)    F      %     mph   deg.    mph     mb.     in.     W/m2     F   
------------------------------------------------------------------------------
  35   21:00   40.4    76    2.3    40      3.4   880.1    0.00       0    999.0
  35   21:10   39.3    77    2.0    34      2.6   880.1    0.00       0    999.0
  35   21:20   40.2    79    1.9    34      2.3   880.2    0.00       0    999.0
  35   21:30   39.3    77    2.4   360      4.4   880.3    0.00       0    999.0
  35   21:40   38.0    80    4.4   322      5.0   880.3    0.00       0    999.0
  35   21:50   38.6    80    4.2   333      4.8   880.4    0.00       0    999.0
  35   22:00   38.6    80    3.6   337      4.4   880.4    0.00       0    999.0
  35   22:10   38.5    81    2.8   354      3.7   880.5    0.00       0    999.0
  35   22:20   37.7    81    2.6   322      4.2   880.6    0.00       0    999.0
  35   22:30   37.0    82    4.1   324      4.8   880.6    0.00       0    999.0
  35   22:40   37.2    82    3.6   345      4.8   880.6    0.00       0    999.0
  35   22:50   37.3    82    2.7     3      3.9   880.5    0.00       0    999.0
  35   23:00   37.3    82    2.8   344      3.9   880.5    0.00       0    999.0
  35   23:10   37.3    82    0.2   354      0.7   880.6    0.00       0    999.0
  35   23:20   36.8    83    0.2    56      2.0   880.5    0.00       0    999.0
  35   23:30   36.3    84    2.0   126      2.3   880.5    0.00       0    999.0
  35   23:40   35.6    85    1.3    41      2.0   880.5    0.00       0    999.0
  35   23:50   35.5    85    1.3   228      2.2   880.5    0.00       0    999.0
  36    0:00   34.7    84    0.9    42      2.9   880.5    0.00       0    999.0
  36    0:10   34.7    87    2.2    39      2.7   880.6    0.00       0    999.0
  36    0:20   34.9    87    1.2    51      2.2   880.6    0.00       0    999.0
  36    0:30   34.4    86    0.2    51      1.0   880.5    0.00       0    999.0
  36    0:40   33.0    87    1.1   330      1.8   880.5    0.00       0    999.0
  36    0:50   32.3    88    1.3   296      2.9   880.5    0.00       0    999.0
  36    1:00   32.1    89    1.9   309      2.9   880.5    0.00       0    999.0
  36    1:10   33.0    90    2.6   344      3.4   880.5    0.00       0    999.0
  36    1:20   32.2    89    3.6   360      4.5   880.5    0.00       0    999.0
  36    1:30   31.1    90    2.5   355      3.5   880.3    0.00       0    999.0
  36    1:40   31.2    90    2.3   327      3.4   880.3    0.00       0    999.0
  36    1:50   31.3    91    3.6   313      4.3   880.3    0.00       0    999.0
  36    2:00   30.8    91    3.8   324      4.6   880.3    0.00       0    999.0
  36    2:10   30.2    91    4.2   346      5.1   880.2    0.00       0    999.0
  36    2:20   29.9    91    3.2   327      3.7   880.2    0.00       0    999.0
  36    2:30   29.9    92    4.0   323      5.1   880.2    0.00       0    999.0
  36    2:40   29.5    92    4.2   353      5.4   880.1    0.00       0    999.0
  36    2:50   28.7    92    1.6     2      2.9   880.1    0.00       0    999.0
  36    3:00   29.3    93    3.0   316      4.2   879.9    0.00       0    999.0
  36    3:10   29.2    93    3.0   333      4.1   879.7    0.00       0    999.0
  36    3:20   28.6    93    2.5   340      4.1   879.7    0.00       0    999.0
  36    3:30   28.1    93    2.9   354      4.4   879.8    0.00       0    999.0
  36    3:40   27.4    93    3.2   338      4.4   879.8    0.00       0    999.0
  36    3:50   27.1    94    2.3    18      3.2   879.7    0.00       0    999.0
  36    4:00   27.3    94    1.1    45      2.3   879.6    0.00       0    999.0
  36    4:10   27.6    94    0.2    56      0.8   879.4    0.00       0    999.0
  36    4:20   28.3    95    0.5    56      1.4   879.2    0.00       0    999.0
  36    4:30   28.6    95    2.0   354      4.2   879.1    0.00       0    999.0
  36    4:40   28.9    96    1.5   344      3.2   879.2    0.00       0    999.0
  36    4:50   29.7    95    1.1   111      2.6   879.2    0.00       0    999.0
  36    5:00   28.2    95    0.2    49      1.2   879.2    0.00       0    999.0
  36    5:10   28.4    96    1.7   149      3.0   879.3    0.00       0    999.0
  36    5:20   28.0    96    1.7   161      2.6   879.5    0.00       0    999.0
  36    5:30   27.0    96    2.3   152      3.2   879.5    0.00       0    999.0
  36    5:40   26.9    96    2.6   106      3.4   879.5    0.00       0    999.0
  36    5:50   27.4    96    3.0   121      4.0   879.5    0.00       0    999.0
  36    6:00   28.0    96    3.0   150      3.9   879.4    0.00       0    999.0
  36    6:10   29.1    96    2.3   141      3.5   879.3    0.00       0    999.0
  36    6:20   29.2    96    1.0   146      5.3   879.1    0.00       0    999.0
  36    6:30   28.8    96    3.2   288      5.6   879.3    0.00       0    999.0
  36    6:40   28.8    96    0.8   279      3.1   879.4    0.00       1    999.0
  36    6:50   29.2    96    0.7   279      1.4   879.5    0.00       3    999.0
  36    7:00   29.0    96    1.0   353      2.0   879.5    0.00       7    999.0
  36    7:10   29.2    96    1.7    49      4.3   879.7    0.00      17    999.0
  36    7:20   29.6    96    3.5    68      4.5   879.8    0.00      26    999.0
  36    7:30   30.0    96    2.6    77      3.7   879.9    0.00      44    999.0
  36    7:40   30.1    96    2.1    63      3.3   879.9    0.00      54    999.0
  36    7:50   30.8    96    1.3   131      2.9   880.1    0.00      84    999.0
  36    8:00   31.8    95    1.5   131      2.2   880.2    0.00     131    999.0
  36    8:10   32.6    93    1.7    84      2.6   880.3    0.00     166    999.0
  36    8:20   33.6    92    1.9    65      3.2   880.3    0.00     141    999.0
  36    8:30   34.4    90    2.5    67      3.8   880.2    0.00     146    999.0
  36    8:40   35.5    88    2.4    90      4.0   880.1    0.00     210    999.0
  36    8:50   37.1    86    0.6    94      2.6   880.1    0.00     234    999.0
  36    9:00   39.0    82    0.3   112      1.2   880.1    0.00     241    999.0
  36    9:10   40.2    78    0.8   245      2.9   880.1    0.00     273    999.0
  36    9:20   41.3    77    0.4   271      2.1   880.0    0.00     300    999.0
  36    9:30   42.2    74    1.6   208      5.0   880.1    0.00     333    999.0
  36    9:40   41.9    74    2.4   143      4.1   880.0    0.00     378    999.0
  36    9:50   42.4    73    1.6   144      3.1   879.9    0.00     394    999.0
  36   10:00   43.5    71    1.3   152      2.8   879.9    0.00     392    999.0
  36   10:10   44.6    69    1.5   164      2.4   879.9    0.00     453    999.0
  36   10:20   45.5    68    1.7   132      3.1   879.8    0.00     539    999.0
  36   10:30   47.1    64    1.6   185      3.8   879.7    0.00     530    999.0
  36   10:40   48.2    62    1.7   222      3.9   879.6    0.00     530    999.0
  36   10:50   49.4    60    1.5   206      4.0   879.5    0.00     452    999.0
  36   11:00   48.8    61    2.2   216      4.3   879.3    0.00     322    999.0
  36   11:10   48.6    62    2.6   193      5.6   879.1    0.00     292    999.0
  36   11:20   48.1    62    3.8   177      5.6   878.9    0.00     271    999.0
  36   11:30   48.4    62    3.2   179      5.6   878.6    0.00     274    999.0
  36   11:40   48.4    62    3.8   165      6.1   878.3    0.00     280    999.0
  36   11:50   48.4    62    3.9   153      6.6   878.0    0.00     327    999.0
  36   12:00   48.7    61    3.1   138      5.2   877.7    0.00     334    999.0
  36   12:10   49.2    60    3.3   140      5.7   877.3    0.00     294    999.0
  36   12:20   50.4    58    3.0   159      5.3   877.0    0.00     404    999.0
  36   12:30   51.0    56    4.1   190      9.7   876.7    0.00     285    999.0
  36   12:40   51.1    56    4.1   205      8.6   876.3    0.00     297    999.0
  36   12:50   52.5    54    3.9   189      6.9   876.0    0.00     639    999.0
  36   13:00   53.1    52    5.2   176     10.6   875.8    0.00     337    999.0
  36   13:10   53.1    52    5.0   216      8.0   875.7    0.00     357    999.0
  36   13:20   53.9    50    7.2   203     11.3   875.6    0.00     452    999.0
  36   13:30   53.0    50    7.2   182     12.0   875.4    0.00     278    999.0
  36   13:40   53.2    49    7.5   196     11.2   875.3    0.00     218    999.0
  36   13:50   52.9    50    7.3   188     10.4   875.2    0.00     169    999.0
  36   14:00   53.0    50    8.6   191     13.6   875.1    0.00     174    999.0
  36   14:10   53.3    48   10.3   186     16.4   875.1    0.00     155    999.0
  36   14:20   53.3    48   10.1   168     15.9   874.9    0.00     145    999.0
  36   14:30   53.6    47   12.7   160     17.1   874.8    0.00     149    999.0
  36   14:40   53.4    47   15.1   152     19.8   874.7    0.00     158    999.0
  36   14:50   53.5    47   15.0   154     18.5   874.7    0.00     152    999.0
  36   15:00   53.5    48   14.8   158     20.8   874.7    0.00     186    999.0
  36   15:10   53.8    47   15.7   161     21.0   874.7    0.00     271    999.0
  36   15:20   54.1    46   16.6   163     21.9   874.7    0.00     232    999.0
  36   15:30   53.3    48   16.9   154     21.9   874.7    0.00     124    999.0
  36   15:40   52.9    49   15.8   157     20.3   874.7    0.00      98    999.0
  36   15:50   52.6    50   16.9   153     22.6   874.8    0.00      86    999.0
  36   16:00   52.2    51   15.6   148     19.1   874.7    0.00      60    999.0
  36   16:10   51.9    52   16.5   150     22.2   874.6    0.00      63    999.0
  36   16:20   51.9    52   15.8   148     21.5   874.5    0.00      51    999.0
  36   16:30   51.7    53   16.5   152     20.6   874.4    0.00      48    999.0
  36   16:40   51.6    54   14.1   155     18.4   874.3    0.00      37    999.0
  36   16:50   51.3    53   13.3   170     18.4   874.3    0.00      28    999.0
  36   17:00   50.8    53   12.4   168     19.4   874.3    0.00      42    999.0
  36   17:10   50.2    55   12.8   158     20.1   874.2    0.00      24    999.0
  36   17:20   49.6    56   13.2   154     18.8   874.2    0.00       6    999.0
  36   17:30   49.3    57   15.6   143     21.1   874.0    0.00       1    999.0
  36   17:40   48.6    59   12.3   157     15.9   874.1    0.00       0    999.0
  36   17:50   48.4    60   13.8   149     20.7   874.0    0.00       0    999.0
  36   18:00   48.7    60   18.0   151     21.9   873.9    0.00       0    999.0
  36   18:10   48.3    60   14.8   156     19.6   873.8    0.00       0    999.0
  36   18:20   47.7    62   12.7   154     16.5   873.8    0.00       0    999.0
  36   18:30   47.5    62   12.8   153     17.0   873.7    0.00       0    999.0
  36   18:40   46.9    64   11.4   146     15.3   873.6    0.00       0    999.0
  36   18:50   46.9    64   12.1   150     15.3   873.5    0.00       0    999.0
  36   19:00   46.7    65   12.9   154     16.9   873.4    0.00       0    999.0
  36   19:10   46.5    65   13.1   148     18.9   873.3    0.00       0    999.0
  36   19:20   46.5    65   12.9   155     19.7   873.5    0.00       0    999.0
  36   19:30   46.2    66   12.9   156     17.7   873.6    0.00       0    999.0
  36   19:40   45.7    67   12.0   143     14.2   873.4    0.00       0    999.0
  36   19:50   45.5    67   14.6   140     20.7   873.1    0.00       0    999.0
  36   20:00   45.4    67   13.8   146     17.8   873.1    0.00       0    999.0
  36   20:10   45.6    67   13.5   144     16.8   873.1    0.00       0    999.0
  36   20:20   46.1    65   15.2   144     19.9   872.9    0.00       0    999.0
  36   20:30   46.4    64   14.1   140     18.6   872.9    0.00       0    999.0
  36   20:40   46.3    64   14.5   133     19.0   872.6    0.00       0    999.0
  36   20:50   46.0    64   15.2   133     20.7   872.4    0.00       0    999.0

Return to Sarcobatus Flat, Nevada graphs page.


Western Regional Climate Center,wrcc@dri.edu